createdAt,value
2022-10-18T00:00:58.187Z,15.07
2022-10-18T00:03:26.970Z,11.98
2022-10-18T00:05:55.264Z,9.20
2022-10-18T00:08:23.385Z,12.30
2022-10-18T00:10:52.754Z,9.63
2022-10-18T00:13:21.399Z,10.38
2022-10-18T00:15:50.614Z,13.82
2022-10-18T00:18:19.041Z,10.30
2022-10-18T00:20:47.142Z,7.05
2022-10-18T00:23:18.329Z,8.45
2022-10-18T00:25:46.860Z,10.30
2022-10-18T00:28:16.126Z,14.95
2022-10-18T00:30:45.874Z,8.98
2022-10-18T00:33:13.845Z,10.70
2022-10-18T00:35:41.840Z,12.05
2022-10-18T00:38:10.003Z,7.38
2022-10-18T00:40:40.945Z,13.00
2022-10-18T00:43:16.835Z,8.02
2022-10-18T00:45:47.192Z,11.65
2022-10-18T00:48:19.206Z,10.65
2022-10-18T00:50:48.568Z,9.93
2022-10-18T00:53:18.891Z,11.05
2022-10-18T00:55:47.454Z,8.07
2022-10-18T00:58:18.192Z,10.07
2022-10-18T01:00:48.322Z,8.13
2022-10-18T01:03:16.389Z,11.73
2022-10-18T01:05:47.466Z,13.07
2022-10-18T01:08:37.534Z,8.48
2022-10-18T01:11:23.909Z,8.25
2022-10-18T01:14:02.703Z,8.35
2022-10-18T01:16:38.694Z,12.73
2022-10-18T01:19:35.967Z,9.25
2022-10-18T01:22:10.295Z,11.77
2022-10-18T01:24:52.357Z,6.97
2022-10-18T01:27:43.868Z,8.93
2022-10-18T01:30:39.024Z,7.95
2022-10-18T01:33:16.241Z,18.98
2022-10-18T01:35:48.836Z,9.97
2022-10-18T01:38:19.747Z,8.52
2022-10-18T01:40:51.049Z,8.43
2022-10-18T01:43:20.949Z,7.95
2022-10-18T01:45:51.747Z,6.30
2022-10-18T01:48:20.457Z,7.40
2022-10-18T01:50:48.752Z,9.02
2022-10-18T01:53:27.651Z,11.23
2022-10-18T01:56:12.953Z,6.07
2022-10-18T01:58:47.847Z,7.82
2022-10-18T02:01:26.684Z,8.07
2022-10-18T02:04:00.333Z,7.28
2022-10-18T02:06:32.358Z,10.25
2022-10-18T02:09:08.365Z,14.20
2022-10-18T02:11:39.028Z,10.00
2022-10-18T02:14:09.378Z,5.85
2022-10-18T02:16:42.344Z,4.65
2022-10-18T02:19:15.447Z,8.48
2022-10-18T02:21:46.607Z,13.95
2022-10-18T02:24:16.172Z,8.77
2022-10-18T02:26:44.398Z,13.52
2022-10-18T02:29:12.873Z,7.40
2022-10-18T02:31:46.609Z,12.77
2022-10-18T02:34:21.437Z,9.90
2022-10-18T02:36:53.514Z,9.48
2022-10-18T02:39:25.570Z,8.15
2022-10-18T02:41:54.625Z,12.65
2022-10-18T02:44:22.476Z,7.65
2022-10-18T02:46:51.666Z,9.23
2022-10-18T02:49:19.553Z,9.90
2022-10-18T02:51:47.405Z,14.95
2022-10-18T02:54:15.262Z,14.07
2022-10-18T02:56:43.122Z,8.70
2022-10-18T02:59:11.689Z,11.50
2022-10-18T03:01:39.617Z,6.43
2022-10-18T03:04:09.260Z,9.27
2022-10-18T03:06:37.138Z,6.78
2022-10-18T03:09:06.777Z,8.48
2022-10-18T03:11:34.873Z,7.45
2022-10-18T03:14:02.900Z,7.38
2022-10-18T03:16:31.465Z,10.98
2022-10-18T03:18:59.335Z,7.05
2022-10-18T03:21:28.545Z,10.80
2022-10-18T03:23:56.539Z,8.05
2022-10-18T03:26:24.374Z,7.85
2022-10-18T03:28:52.442Z,9.50
2022-10-18T03:31:20.366Z,8.73
2022-10-18T03:33:48.318Z,7.82
2022-10-18T03:36:16.248Z,8.73
2022-10-18T03:38:45.691Z,11.98
2022-10-18T03:41:13.609Z,7.68
2022-10-18T03:43:41.547Z,13.55
2022-10-18T03:46:09.415Z,8.95
2022-10-18T03:48:37.251Z,13.50
2022-10-18T03:51:05.331Z,9.38
2022-10-18T03:53:33.220Z,4.95
2022-10-18T03:56:02.414Z,6.60
2022-10-18T03:58:30.324Z,15.90
2022-10-18T04:00:58.164Z,10.25
2022-10-18T04:03:26.017Z,3.28
2022-10-18T04:05:53.868Z,8.15
2022-10-18T04:08:21.792Z,6.00
2022-10-18T04:10:49.839Z,7.82
2022-10-18T04:13:19.045Z,6.63
2022-10-18T04:15:47.011Z,6.85
2022-10-18T04:18:14.994Z,11.60
2022-10-18T04:20:42.855Z,7.38
2022-10-18T04:23:10.700Z,7.50
2022-10-18T04:25:38.575Z,14.20
2022-10-18T04:28:06.634Z,7.28
2022-10-18T04:30:36.971Z,8.52
2022-10-18T04:33:04.835Z,7.38
2022-10-18T04:35:32.729Z,8.32
2022-10-18T04:38:00.600Z,7.72
2022-10-18T04:40:28.447Z,9.82
2022-10-18T04:42:57.100Z,9.02
2022-10-18T04:45:25.009Z,12.50
2022-10-18T04:47:54.241Z,11.25
2022-10-18T04:50:22.090Z,9.18
2022-10-18T04:55:22.815Z,8.18
2022-10-18T04:57:50.669Z,16.70
2022-10-18T05:00:18.785Z,11.52
2022-10-18T05:02:46.657Z,13.23
2022-10-18T05:05:15.994Z,7.72
2022-10-18T05:07:43.852Z,12.82
2022-10-18T05:10:11.687Z,9.25
2022-10-18T05:12:39.541Z,11.88
2022-10-18T05:15:08.428Z,4.50
2022-10-18T05:17:36.314Z,5.65
2022-10-18T05:20:04.737Z,6.93
2022-10-18T05:22:34.210Z,9.27
2022-10-18T05:25:02.348Z,12.52
2022-10-18T05:27:30.387Z,11.55
2022-10-18T05:30:01.255Z,14.90
2022-10-18T05:32:32.596Z,4.75
2022-10-18T05:35:00.713Z,6.78
2022-10-18T05:37:28.601Z,7.63
2022-10-18T05:39:57.829Z,5.90
2022-10-18T05:42:25.690Z,6.32
2022-10-18T05:44:53.551Z,8.85
2022-10-18T05:47:21.463Z,8.07
2022-10-18T05:49:49.440Z,8.52
2022-10-18T05:52:17.650Z,6.28
2022-10-18T05:54:45.512Z,8.85
2022-10-18T05:57:14.690Z,7.47
2022-10-18T05:59:42.557Z,6.47
2022-10-18T06:02:11.706Z,6.18
2022-10-18T06:04:39.691Z,9.27
2022-10-18T06:07:11.064Z,8.48
2022-10-18T06:09:39.375Z,7.13
2022-10-18T06:12:09.108Z,9.13
2022-10-18T06:14:38.691Z,9.60
2022-10-18T06:17:06.629Z,10.07
2022-10-18T06:19:34.474Z,6.75
2022-10-18T06:22:02.449Z,9.60
2022-10-18T06:24:30.308Z,6.53
2022-10-18T06:26:58.569Z,7.90
2022-10-18T06:29:26.476Z,10.02
2022-10-18T06:31:55.686Z,8.25
2022-10-18T06:34:23.572Z,9.00
2022-10-18T06:36:54.899Z,11.07
2022-10-18T06:39:24.862Z,12.00
2022-10-18T06:41:52.922Z,5.70
2022-10-18T06:44:21.594Z,11.15
2022-10-18T06:46:50.281Z,4.60
2022-10-18T06:49:19.537Z,7.00
2022-10-18T06:51:47.708Z,6.63
2022-10-18T06:54:18.738Z,9.52
2022-10-18T06:56:47.139Z,11.52
2022-10-18T06:59:15.823Z,7.90
2022-10-18T07:01:44.131Z,4.85
2022-10-18T07:04:12.270Z,10.30
2022-10-18T07:06:41.557Z,6.13
2022-10-18T07:09:09.469Z,6.25
2022-10-18T07:11:37.425Z,7.45
2022-10-18T07:14:05.472Z,5.95
2022-10-18T07:16:34.388Z,10.60
2022-10-18T07:19:02.493Z,7.97
2022-10-18T07:21:30.374Z,6.65
2022-10-18T07:23:59.669Z,10.30
2022-10-18T07:26:30.059Z,7.20
2022-10-18T07:29:00.445Z,16.73
2022-10-18T07:31:29.764Z,13.55
2022-10-18T07:33:58.002Z,9.02
2022-10-18T07:36:26.185Z,5.13
2022-10-18T07:38:54.698Z,9.38
2022-10-18T07:41:24.136Z,11.00
2022-10-18T07:43:53.733Z,13.38
2022-10-18T07:46:22.757Z,15.90
2022-10-18T07:48:51.087Z,7.47
2022-10-18T07:51:19.922Z,9.80
2022-10-18T07:53:48.195Z,12.07
2022-10-18T07:56:21.254Z,8.13
2022-10-18T07:58:52.619Z,8.32
2022-10-18T08:01:21.453Z,6.50
2022-10-18T08:03:49.416Z,5.20
2022-10-18T08:06:19.462Z,3.92
2022-10-18T08:08:47.879Z,9.05
2022-10-18T08:11:17.654Z,11.63
2022-10-18T08:13:45.847Z,9.77
2022-10-18T08:16:17.661Z,12.32
2022-10-18T08:18:45.980Z,9.52
2022-10-18T08:21:16.213Z,8.32
2022-10-18T08:23:44.639Z,5.75
2022-10-18T08:26:15.280Z,6.80
2022-10-18T08:28:53.484Z,13.32
2022-10-18T08:31:27.721Z,6.35
2022-10-18T08:33:56.939Z,12.85
2022-10-18T08:36:25.241Z,9.98
2022-10-18T08:38:53.195Z,6.05
2022-10-18T08:41:39.059Z,7.82
2022-10-18T08:44:14.407Z,7.00
2022-10-18T08:46:46.861Z,14.38
2022-10-18T08:49:23.636Z,8.63
2022-10-18T08:51:52.640Z,9.80
2022-10-18T08:54:26.254Z,6.80
2022-10-18T08:57:00.651Z,6.88
2022-10-18T08:59:33.911Z,7.00
2022-10-18T09:02:11.919Z,9.70
2022-10-18T09:07:25.435Z,10.60
2022-10-18T09:10:00.283Z,5.50
2022-10-18T09:12:46.868Z,6.63
2022-10-18T09:15:20.889Z,9.50
2022-10-18T09:18:05.459Z,5.35
2022-10-18T09:20:41.389Z,10.80
2022-10-18T09:23:18.076Z,8.13
2022-10-18T09:25:47.839Z,10.27
2022-10-18T09:28:20.847Z,5.88
2022-10-18T09:30:59.699Z,10.93
2022-10-18T09:33:40.247Z,10.02
2022-10-18T09:36:11.537Z,6.88
2022-10-18T09:38:44.470Z,8.32
2022-10-18T09:41:19.248Z,8.98
2022-10-18T09:43:52.935Z,7.60
2022-10-18T09:46:24.422Z,17.52
2022-10-18T09:48:58.946Z,11.18
2022-10-18T09:51:30.557Z,7.93
2022-10-18T09:54:10.088Z,7.90
2022-10-18T09:56:42.415Z,9.40
2022-10-18T09:59:32.788Z,9.57
2022-10-18T10:02:01.029Z,7.93
2022-10-18T10:04:30.704Z,6.47
2022-10-18T10:07:01.906Z,12.25
2022-10-18T10:09:31.869Z,6.93
2022-10-18T10:12:00.026Z,12.65
2022-10-18T10:14:30.305Z,8.32
2022-10-18T10:17:02.154Z,7.72
2022-10-18T10:19:34.030Z,15.50
2022-10-18T10:22:06.855Z,9.52
2022-10-18T10:24:44.065Z,9.23
2022-10-18T10:27:19.019Z,7.23
2022-10-18T10:29:57.654Z,10.45
2022-10-18T10:32:30.859Z,7.28
2022-10-18T10:35:00.507Z,9.23
2022-10-18T10:37:36.499Z,5.25
2022-10-18T10:40:18.445Z,6.63
2022-10-18T10:43:12.691Z,7.57
2022-10-18T10:46:01.619Z,8.18
2022-10-18T10:48:33.473Z,4.13
2022-10-18T10:51:07.233Z,7.88
2022-10-18T10:53:41.294Z,8.88
2022-10-18T10:56:17.910Z,4.10
2022-10-18T10:58:45.857Z,10.95
2022-10-18T11:01:29.696Z,9.23
2022-10-18T11:04:00.192Z,7.75
2022-10-18T11:06:46.459Z,9.15
2022-10-18T11:09:37.489Z,7.85
2022-10-18T11:12:17.110Z,8.00
2022-10-18T11:14:51.146Z,6.78
2022-10-18T11:17:26.644Z,8.75
2022-10-18T11:20:11.330Z,5.82
2022-10-18T11:22:44.984Z,4.55
2022-10-18T11:25:16.300Z,6.90
2022-10-18T11:27:53.988Z,7.65
2022-10-18T11:30:44.544Z,4.63
2022-10-18T11:33:33.702Z,6.28
2022-10-18T11:36:19.372Z,5.72
2022-10-18T11:38:57.084Z,4.43
2022-10-18T11:41:39.753Z,8.73
2022-10-18T11:44:17.974Z,2.92
2022-10-18T11:46:56.659Z,7.13
2022-10-18T11:49:39.991Z,9.10
2022-10-18T11:52:16.043Z,5.28
2022-10-18T11:55:00.191Z,4.53
2022-10-18T11:57:41.146Z,4.65
2022-10-18T12:00:31.370Z,5.10
2022-10-18T12:03:12.912Z,7.35
2022-10-18T12:05:44.131Z,5.25
2022-10-18T12:08:15.866Z,3.42
2022-10-18T12:11:04.462Z,4.93
2022-10-18T12:13:38.219Z,3.20
2022-10-18T12:16:08.261Z,4.50
2022-10-18T12:18:38.588Z,7.95
2022-10-18T12:21:07.736Z,2.20
2022-10-18T12:23:43.202Z,5.68
2022-10-18T12:26:20.449Z,2.13
2022-10-18T12:28:57.639Z,11.40
2022-10-18T12:31:33.798Z,6.10
2022-10-18T12:34:05.365Z,3.72
2022-10-18T12:36:52.650Z,5.57
2022-10-18T12:39:33.471Z,2.10
2022-10-18T12:42:21.411Z,1.90
2022-10-18T12:44:50.103Z,4.57
2022-10-18T12:47:26.156Z,2.47
2022-10-18T12:49:58.921Z,3.05
2022-10-18T12:52:29.084Z,2.67
2022-10-18T12:55:07.671Z,8.35
2022-10-18T12:58:06.810Z,4.05
2022-10-18T13:01:01.327Z,8.48
2022-10-18T13:03:56.947Z,5.63
2022-10-18T13:06:24.972Z,4.55
2022-10-18T13:09:20.376Z,2.60
2022-10-18T13:11:48.907Z,3.38
2022-10-18T13:14:59.194Z,2.38
2022-10-18T13:17:40.201Z,3.08
2022-10-18T13:20:26.113Z,3.83
2022-10-18T13:23:05.281Z,5.45
2022-10-18T13:25:40.609Z,5.72
2022-10-18T13:28:23.780Z,3.97
2022-10-18T13:30:58.664Z,2.22
2022-10-18T13:33:35.019Z,7.05
2022-10-18T13:36:05.525Z,3.28
2022-10-18T13:38:48.350Z,2.35
2022-10-18T13:41:19.077Z,3.60
2022-10-18T13:44:24.215Z,6.68
2022-10-18T13:47:32.966Z,9.13
2022-10-18T13:50:30.474Z,4.13
2022-10-18T13:53:39.827Z,5.15
2022-10-18T13:56:32.529Z,4.30
2022-10-18T13:59:26.577Z,5.95
2022-10-18T14:02:15.086Z,7.57
2022-10-18T14:05:23.183Z,1.75
2022-10-18T14:07:53.395Z,8.60
2022-10-18T14:10:43.278Z,6.68
2022-10-18T14:13:21.116Z,4.55
2022-10-18T14:15:52.650Z,7.80
2022-10-18T14:18:27.946Z,5.32
2022-10-18T14:21:21.973Z,9.48
2022-10-18T14:23:52.032Z,6.25
2022-10-18T14:26:22.756Z,7.88
2022-10-18T14:29:04.251Z,4.18
2022-10-18T14:31:32.273Z,4.55
2022-10-18T14:34:01.825Z,3.72
2022-10-18T14:36:38.245Z,5.78
2022-10-18T14:39:08.295Z,3.25
2022-10-18T14:41:38.561Z,7.70
2022-10-18T14:44:19.281Z,6.07
2022-10-18T14:46:49.453Z,5.03
2022-10-18T14:49:18.447Z,5.22
2022-10-18T14:51:50.381Z,7.50
2022-10-18T14:54:20.634Z,8.10
2022-10-18T14:56:49.112Z,3.03
2022-10-18T14:59:23.119Z,5.07
2022-10-18T15:01:54.783Z,4.45
2022-10-18T15:04:27.788Z,4.53
2022-10-18T15:06:58.577Z,3.08
2022-10-18T15:11:57.862Z,8.25
2022-10-18T15:14:28.352Z,5.03
2022-10-18T15:17:01.505Z,6.90
2022-10-18T15:19:33.155Z,6.93
2022-10-18T15:25:15.207Z,7.53
2022-10-18T15:27:46.080Z,5.43
2022-10-18T15:30:20.946Z,12.38
2022-10-18T15:32:51.883Z,3.35
2022-10-18T15:35:26.092Z,4.97
2022-10-18T15:37:58.177Z,4.53
2022-10-18T15:40:37.154Z,3.30
2022-10-18T15:43:07.205Z,6.32
2022-10-18T15:45:38.852Z,9.75
2022-10-18T15:48:21.819Z,2.95
2022-10-18T15:50:51.797Z,3.58
2022-10-18T15:53:53.768Z,5.93
2022-10-18T15:56:30.779Z,4.80
2022-10-18T15:59:00.762Z,5.32
2022-10-18T16:01:35.929Z,7.60
2022-10-18T16:04:09.201Z,10.88
2022-10-18T16:06:38.545Z,7.95
2022-10-18T16:09:07.837Z,5.03
2022-10-18T16:11:35.702Z,6.43
2022-10-18T16:14:03.625Z,9.15
2022-10-18T16:16:31.550Z,9.02
2022-10-18T16:18:59.698Z,3.63
2022-10-18T16:21:29.467Z,8.18
2022-10-18T16:23:58.227Z,7.57
2022-10-18T16:26:28.275Z,7.57
2022-10-18T16:28:57.325Z,7.38
2022-10-18T16:31:27.493Z,8.88
2022-10-18T16:33:56.826Z,16.48
2022-10-18T16:36:29.018Z,7.18
2022-10-18T16:38:57.761Z,10.20
2022-10-18T16:41:27.539Z,7.35
2022-10-18T16:43:55.672Z,7.78
2022-10-18T16:46:27.245Z,5.68
2022-10-18T16:48:56.023Z,15.15
2022-10-18T16:51:24.528Z,8.38
2022-10-18T16:53:53.324Z,5.97
2022-10-18T16:56:23.639Z,10.52
2022-10-18T16:58:53.425Z,6.43
2022-10-18T17:01:23.010Z,11.00
2022-10-18T17:03:52.101Z,11.18
2022-10-18T17:06:22.654Z,6.70
2022-10-18T17:08:52.054Z,8.50
2022-10-18T17:11:21.931Z,5.63
2022-10-18T17:13:49.886Z,25.65
2022-10-18T17:16:25.101Z,7.75
2022-10-18T17:18:53.190Z,7.85
2022-10-18T17:21:21.080Z,8.75
2022-10-18T17:23:49.000Z,9.27
2022-10-18T17:26:30.439Z,11.02
2022-10-18T17:29:00.736Z,9.23
2022-10-18T17:31:30.629Z,6.28
2022-10-18T17:34:01.396Z,7.47
2022-10-18T17:36:29.792Z,9.57
2022-10-18T17:38:58.026Z,6.25
2022-10-18T17:41:26.036Z,10.20
2022-10-18T17:43:54.077Z,10.80
2022-10-18T17:46:23.514Z,11.98
2022-10-18T17:48:52.896Z,9.68
2022-10-18T17:51:20.904Z,10.68
2022-10-18T17:53:48.758Z,11.77
2022-10-18T17:56:17.334Z,11.90
2022-10-18T17:58:45.698Z,9.07
2022-10-18T18:01:15.882Z,6.85
2022-10-18T18:03:43.983Z,7.93
2022-10-18T18:06:18.248Z,8.55
2022-10-18T18:08:46.810Z,12.65
2022-10-18T18:11:15.090Z,12.52
2022-10-18T18:13:43.168Z,9.20
2022-10-18T18:16:13.063Z,10.90
2022-10-18T18:18:41.322Z,10.43
2022-10-18T18:21:09.675Z,9.45
2022-10-18T18:23:38.953Z,12.10
2022-10-18T18:26:07.198Z,16.48
2022-10-18T18:28:35.970Z,13.63
2022-10-18T18:31:06.945Z,11.25
2022-10-18T18:33:35.050Z,8.63
2022-10-18T18:36:04.801Z,10.93
2022-10-18T18:38:33.932Z,10.02
2022-10-18T18:41:08.771Z,11.93
2022-10-18T18:43:37.904Z,14.82
2022-10-18T18:46:06.276Z,14.75
2022-10-18T18:48:35.301Z,18.98
2022-10-18T18:51:03.305Z,11.32
2022-10-18T18:53:31.660Z,9.68
2022-10-18T18:56:04.053Z,12.40
2022-10-18T18:58:33.539Z,13.13
2022-10-18T19:01:07.573Z,10.52
2022-10-18T19:03:35.588Z,12.00
2022-10-18T19:06:04.794Z,10.80
2022-10-18T19:08:32.743Z,14.80
2022-10-18T19:11:00.605Z,16.75
2022-10-18T19:13:28.505Z,17.27
2022-10-18T19:18:56.259Z,11.30
2022-10-18T19:21:25.896Z,15.20
2022-10-18T19:23:55.982Z,15.65
2022-10-18T19:26:30.732Z,19.95
2022-10-18T19:29:01.921Z,11.70
2022-10-18T19:31:30.205Z,13.48
2022-10-18T19:34:00.086Z,19.33
2022-10-18T19:36:28.983Z,12.23
2022-10-18T19:38:57.144Z,17.20
2022-10-18T19:43:53.513Z,16.58
2022-10-18T19:46:21.575Z,12.93
2022-10-18T19:48:49.514Z,12.20
2022-10-18T19:51:22.850Z,17.58
2022-10-18T19:53:53.239Z,12.93
2022-10-18T19:56:24.126Z,13.70
2022-10-18T19:58:52.664Z,19.00
2022-10-18T20:01:20.975Z,14.23
2022-10-18T20:03:49.515Z,11.98
2022-10-18T20:06:19.068Z,17.17
2022-10-18T20:08:47.269Z,14.93
2022-10-18T20:11:17.453Z,20.80
2022-10-18T20:13:45.405Z,18.10
2022-10-18T20:16:15.103Z,16.40
2022-10-18T20:18:44.109Z,15.00
2022-10-18T20:21:13.700Z,13.93
2022-10-18T20:23:44.377Z,14.05
2022-10-18T20:26:18.305Z,14.90
2022-10-18T20:28:55.762Z,18.60
2022-10-18T20:31:25.309Z,16.20
2022-10-18T20:33:57.023Z,20.00
2022-10-18T20:36:25.528Z,19.17
2022-10-18T20:38:55.080Z,17.30
2022-10-18T20:41:26.157Z,17.67
2022-10-18T20:43:55.588Z,14.98
2022-10-18T20:46:23.847Z,19.13
2022-10-18T20:48:52.787Z,18.73
2022-10-18T20:51:21.505Z,23.13
2022-10-18T20:53:50.247Z,15.57
2022-10-18T20:56:21.067Z,21.85
2022-10-18T20:58:50.557Z,20.23
2022-10-18T21:01:20.726Z,20.55
2022-10-18T21:03:50.630Z,16.40
2022-10-18T21:06:20.065Z,19.00
2022-10-18T21:08:48.386Z,16.52
2022-10-18T21:11:16.483Z,17.70
2022-10-18T21:13:50.266Z,21.42
2022-10-18T21:16:18.099Z,20.15
2022-10-18T21:18:46.017Z,30.67
2022-10-18T21:21:16.444Z,17.70
2022-10-18T21:23:44.940Z,18.73
2022-10-18T21:26:15.916Z,22.05
2022-10-18T21:28:45.782Z,22.50
2022-10-18T21:31:15.820Z,21.30
2022-10-18T21:33:47.361Z,19.88
2022-10-18T21:36:16.049Z,17.80
2022-10-18T21:38:45.971Z,27.98
2022-10-18T21:41:15.014Z,23.77
2022-10-18T21:43:46.023Z,26.80
2022-10-18T21:46:16.250Z,24.70
2022-10-18T21:48:45.789Z,23.35
2022-10-18T21:51:15.499Z,22.27
2022-10-18T21:53:44.674Z,23.83
2022-10-18T21:56:14.436Z,25.48
2022-10-18T21:58:43.344Z,23.05
2022-10-18T22:01:14.412Z,30.80
2022-10-18T22:03:44.575Z,27.00
2022-10-18T22:06:15.015Z,29.52
2022-10-18T22:08:45.507Z,25.27
2022-10-18T22:11:15.420Z,25.48
2022-10-18T22:13:47.244Z,28.48
2022-10-18T22:16:18.429Z,25.25
2022-10-18T22:18:50.074Z,20.85
2022-10-18T22:21:20.787Z,26.48
2022-10-18T22:23:50.474Z,22.08
2022-10-18T22:26:21.073Z,22.13
2022-10-18T22:28:56.199Z,25.25
2022-10-18T22:31:33.604Z,24.15
2022-10-18T22:34:05.571Z,23.95
2022-10-18T22:36:35.177Z,21.70
2022-10-18T22:39:03.342Z,25.85
2022-10-18T22:41:31.736Z,26.20
2022-10-18T22:44:03.384Z,18.20
2022-10-18T22:46:33.666Z,24.92
2022-10-18T22:49:01.830Z,21.25
2022-10-18T22:51:29.967Z,23.83
2022-10-18T22:53:57.986Z,22.15
2022-10-18T22:56:26.326Z,27.40
2022-10-18T22:58:54.388Z,27.30
2022-10-18T23:01:24.151Z,35.58
2022-10-18T23:03:57.530Z,22.52
2022-10-18T23:06:27.158Z,21.20
2022-10-18T23:08:56.928Z,23.15
2022-10-18T23:11:25.437Z,24.33
2022-10-18T23:13:53.606Z,27.08
2022-10-18T23:16:21.654Z,18.15
2022-10-18T23:18:54.224Z,23.67
2022-10-18T23:21:25.534Z,24.25
2022-10-18T23:23:54.607Z,36.63
2022-10-18T23:26:24.808Z,19.30
2022-10-18T23:28:54.210Z,24.38
2022-10-18T23:31:23.799Z,28.08
2022-10-18T23:33:53.732Z,20.33
2022-10-18T23:36:23.950Z,25.63
2022-10-18T23:38:52.318Z,23.90
2022-10-18T23:41:20.859Z,20.85
2022-10-18T23:43:49.480Z,19.17
2022-10-18T23:46:18.841Z,23.13
2022-10-18T23:48:47.782Z,26.52
2022-10-18T23:51:16.141Z,24.75
2022-10-18T23:53:45.349Z,20.88
2022-10-18T23:56:15.336Z,26.17
2022-10-18T23:58:43.875Z,32.30
